sensor_id;sensor_type;location;lat;lon;timestamp;temperature;humidity
20524;DHT22;10420;48.542;12.270;2023-05-27T00:02:40;13.90;99.90
20524;DHT22;10420;48.542;12.270;2023-05-27T00:07:42;13.70;99.90
20524;DHT22;10420;48.542;12.270;2023-05-27T00:12:42;13.60;99.90
20524;DHT22;10420;48.542;12.270;2023-05-27T00:17:43;13.80;99.90
20524;DHT22;10420;48.542;12.270;2023-05-27T00:22:43;13.90;99.90
20524;DHT22;10420;48.542;12.270;2023-05-27T00:27:44;13.90;99.90
20524;DHT22;10420;48.542;12.270;2023-05-27T00:32:45;14.00;99.90
20524;DHT22;10420;48.542;12.270;2023-05-27T00:37:45;14.00;99.90
20524;DHT22;10420;48.542;12.270;2023-05-27T00:42:46;14.00;99.90
20524;DHT22;10420;48.542;12.270;2023-05-27T00:47:47;13.90;99.90
20524;DHT22;10420;48.542;12.270;2023-05-27T00:52:47;13.70;99.90
20524;DHT22;10420;48.542;12.270;2023-05-27T00:57:48;13.80;99.90
20524;DHT22;10420;48.542;12.270;2023-05-27T01:02:50;13.80;99.90
20524;DHT22;10420;48.542;12.270;2023-05-27T01:07:57;13.70;99.90
20524;DHT22;10420;48.542;12.270;2023-05-27T01:13:02;13.50;99.90
20524;DHT22;10420;48.542;12.270;2023-05-27T01:18:05;13.50;99.90
20524;DHT22;10420;48.542;12.270;2023-05-27T01:23:06;13.50;99.90
20524;DHT22;10420;48.542;12.270;2023-05-27T01:28:07;13.50;99.90
20524;DHT22;10420;48.542;12.270;2023-05-27T01:33:10;13.50;99.90
20524;DHT22;10420;48.542;12.270;2023-05-27T01:38:16;13.40;99.90
20524;DHT22;10420;48.542;12.270;2023-05-27T01:43:18;13.30;99.90
20524;DHT22;10420;48.542;12.270;2023-05-27T01:48:20;13.10;99.90
20524;DHT22;10420;48.542;12.270;2023-05-27T01:53:20;12.90;99.90
20524;DHT22;10420;48.542;12.270;2023-05-27T01:58:21;12.90;99.90
20524;DHT22;10420;48.542;12.270;2023-05-27T02:03:21;12.70;99.90
20524;DHT22;10420;48.542;12.270;2023-05-27T02:08:22;12.60;99.90
20524;DHT22;10420;48.542;12.270;2023-05-27T02:13:23;12.70;99.90
20524;DHT22;10420;48.542;12.270;2023-05-27T02:18:24;12.60;99.90
20524;DHT22;10420;48.542;12.270;2023-05-27T02:23:25;12.70;99.90
20524;DHT22;10420;48.542;12.270;2023-05-27T02:28:27;12.50;99.90
20524;DHT22;10420;48.542;12.270;2023-05-27T02:33:28;12.40;99.90
20524;DHT22;10420;48.542;12.270;2023-05-27T02:38:28;12.50;99.90
20524;DHT22;10420;48.542;12.270;2023-05-27T02:43:29;12.30;99.90
20524;DHT22;10420;48.542;12.270;2023-05-27T02:48:30;12.40;99.90
20524;DHT22;10420;48.542;12.270;2023-05-27T02:53:30;12.20;99.90
20524;DHT22;10420;48.542;12.270;2023-05-27T02:58:31;12.00;99.90
20524;DHT22;10420;48.542;12.270;2023-05-27T03:03:32;12.00;99.90
20524;DHT22;10420;48.542;12.270;2023-05-27T03:08:32;12.00;99.90
20524;DHT22;10420;48.542;12.270;2023-05-27T03:13:33;11.80;99.90
20524;DHT22;10420;48.542;12.270;2023-05-27T03:18:33;12.00;99.90
20524;DHT22;10420;48.542;12.270;2023-05-27T03:23:34;11.50;99.90
20524;DHT22;10420;48.542;12.270;2023-05-27T03:28:35;11.20;99.90
20524;DHT22;10420;48.542;12.270;2023-05-27T03:33:37;11.30;99.90
20524;DHT22;10420;48.542;12.270;2023-05-27T03:38:38;11.10;99.90
20524;DHT22;10420;48.542;12.270;2023-05-27T03:43:38;11.10;99.90
20524;DHT22;10420;48.542;12.270;2023-05-27T03:48:39;11.20;99.90
20524;DHT22;10420;48.542;12.270;2023-05-27T03:53:40;11.30;99.90
20524;DHT22;10420;48.542;12.270;2023-05-27T03:58:40;11.30;99.90
20524;DHT22;10420;48.542;12.270;2023-05-27T04:03:41;11.40;99.90
20524;DHT22;10420;48.542;12.270;2023-05-27T04:08:42;11.50;99.90
20524;DHT22;10420;48.542;12.270;2023-05-27T04:13:42;11.90;99.90
20524;DHT22;10420;48.542;12.270;2023-05-27T04:18:43;12.20;99.90
20524;DHT22;10420;48.542;12.270;2023-05-27T04:23:49;12.10;99.90
20524;DHT22;10420;48.542;12.270;2023-05-27T04:28:49;12.30;99.90
20524;DHT22;10420;48.542;12.270;2023-05-27T04:33:50;12.80;99.90
20524;DHT22;10420;48.542;12.270;2023-05-27T04:38:51;12.60;99.90
20524;DHT22;10420;48.542;12.270;2023-05-27T04:43:52;12.70;99.90
20524;DHT22;10420;48.542;12.270;2023-05-27T04:48:53;13.40;99.90
20524;DHT22;10420;48.542;12.270;2023-05-27T04:53:54;13.90;99.90
20524;DHT22;10420;48.542;12.270;2023-05-27T04:58:56;16.20;99.90
20524;DHT22;10420;48.542;12.270;2023-05-27T05:03:59;17.80;99.90
20524;DHT22;10420;48.542;12.270;2023-05-27T05:09:25;19.10;99.90
20524;DHT22;10420;48.542;12.270;2023-05-27T05:14:26;20.10;99.90
20524;DHT22;10420;48.542;12.270;2023-05-27T05:19:27;20.40;99.90
20524;DHT22;10420;48.542;12.270;2023-05-27T05:24:27;20.40;99.90
20524;DHT22;10420;48.542;12.270;2023-05-27T05:29:28;20.70;99.90
20524;DHT22;10420;48.542;12.270;2023-05-27T05:34:29;20.10;99.90
20524;DHT22;10420;48.542;12.270;2023-05-27T05:39:30;20.20;99.90
20524;DHT22;10420;48.542;12.270;2023-05-27T05:44:31;21.20;99.90
20524;DHT22;10420;48.542;12.270;2023-05-27T05:49:31;19.00;99.90
20524;DHT22;10420;48.542;12.270;2023-05-27T05:54:32;17.80;99.90
20524;DHT22;10420;48.542;12.270;2023-05-27T05:59:32;17.30;99.90
20524;DHT22;10420;48.542;12.270;2023-05-27T06:04:33;17.10;99.90
20524;DHT22;10420;48.542;12.270;2023-05-27T06:09:34;17.30;99.90
20524;DHT22;10420;48.542;12.270;2023-05-27T06:14:34;17.70;99.90
20524;DHT22;10420;48.542;12.270;2023-05-27T06:19:35;18.40;99.90
20524;DHT22;10420;48.542;12.270;2023-05-27T06:24:36;17.90;99.90
20524;DHT22;10420;48.542;12.270;2023-05-27T06:29:36;18.10;99.90
20524;DHT22;10420;48.542;12.270;2023-05-27T06:34:37;18.70;99.90
20524;DHT22;10420;48.542;12.270;2023-05-27T06:39:37;19.10;99.90
20524;DHT22;10420;48.542;12.270;2023-05-27T06:44:38;19.00;99.90
20524;DHT22;10420;48.542;12.270;2023-05-27T06:49:39;19.90;99.90
20524;DHT22;10420;48.542;12.270;2023-05-27T06:54:39;20.30;99.90
20524;DHT22;10420;48.542;12.270;2023-05-27T06:59:40;20.20;99.90
20524;DHT22;10420;48.542;12.270;2023-05-27T07:04:41;20.00;99.90
20524;DHT22;10420;48.542;12.270;2023-05-27T07:09:42;20.10;99.90
20524;DHT22;10420;48.542;12.270;2023-05-27T07:14:42;20.10;99.90
20524;DHT22;10420;48.542;12.270;2023-05-27T07:19:43;19.80;99.90
20524;DHT22;10420;48.542;12.270;2023-05-27T07:24:44;19.70;99.90
20524;DHT22;10420;48.542;12.270;2023-05-27T07:29:45;20.10;99.90
20524;DHT22;10420;48.542;12.270;2023-05-27T07:34:45;20.30;99.90
20524;DHT22;10420;48.542;12.270;2023-05-27T07:39:46;19.70;99.90
20524;DHT22;10420;48.542;12.270;2023-05-27T07:44:46;20.50;99.90
20524;DHT22;10420;48.542;12.270;2023-05-27T07:49:49;19.30;99.90
20524;DHT22;10420;48.542;12.270;2023-05-27T07:54:50;18.80;99.90
20524;DHT22;10420;48.542;12.270;2023-05-27T07:59:50;19.50;99.90
20524;DHT22;10420;48.542;12.270;2023-05-27T08:04:51;20.30;99.90
20524;DHT22;10420;48.542;12.270;2023-05-27T08:09:52;20.40;99.90
20524;DHT22;10420;48.542;12.270;2023-05-27T08:14:53;20.10;99.90
20524;DHT22;10420;48.542;12.270;2023-05-27T08:19:53;20.10;99.90
20524;DHT22;10420;48.542;12.270;2023-05-27T08:24:54;20.60;99.90
20524;DHT22;10420;48.542;12.270;2023-05-27T08:29:55;20.80;99.90
20524;DHT22;10420;48.542;12.270;2023-05-27T08:34:56;21.30;99.90
20524;DHT22;10420;48.542;12.270;2023-05-27T08:39:58;21.00;99.90
20524;DHT22;10420;48.542;12.270;2023-05-27T08:44:59;20.70;99.90
20524;DHT22;10420;48.542;12.270;2023-05-27T08:50:00;21.40;99.90
20524;DHT22;10420;48.542;12.270;2023-05-27T08:55:01;21.40;99.90
20524;DHT22;10420;48.542;12.270;2023-05-27T09:00:03;21.70;99.90
20524;DHT22;10420;48.542;12.270;2023-05-27T09:05:12;21.80;99.90
20524;DHT22;10420;48.542;12.270;2023-05-27T09:10:13;21.90;99.90
20524;DHT22;10420;48.542;12.270;2023-05-27T09:15:14;21.80;99.90
20524;DHT22;10420;48.542;12.270;2023-05-27T09:20:15;21.60;99.90
20524;DHT22;10420;48.542;12.270;2023-05-27T09:25:16;20.90;99.90
20524;DHT22;10420;48.542;12.270;2023-05-27T09:30:19;21.80;99.90
20524;DHT22;10420;48.542;12.270;2023-05-27T09:35:20;22.10;99.90
20524;DHT22;10420;48.542;12.270;2023-05-27T09:40:20;22.00;99.90
20524;DHT22;10420;48.542;12.270;2023-05-27T09:45:21;21.60;99.90
20524;DHT22;10420;48.542;12.270;2023-05-27T09:50:22;22.10;99.90
20524;DHT22;10420;48.542;12.270;2023-05-27T09:55:23;22.20;99.90
20524;DHT22;10420;48.542;12.270;2023-05-27T10:00:24;22.00;99.90
20524;DHT22;10420;48.542;12.270;2023-05-27T10:05:27;21.50;99.90
20524;DHT22;10420;48.542;12.270;2023-05-27T10:10:28;22.10;99.90
20524;DHT22;10420;48.542;12.270;2023-05-27T10:15:31;21.60;99.90
20524;DHT22;10420;48.542;12.270;2023-05-27T10:20:38;22.50;99.90
20524;DHT22;10420;48.542;12.270;2023-05-27T10:25:40;22.20;99.90
20524;DHT22;10420;48.542;12.270;2023-05-27T10:30:45;21.60;99.90
20524;DHT22;10420;48.542;12.270;2023-05-27T10:35:49;21.80;99.90
20524;DHT22;10420;48.542;12.270;2023-05-27T10:40:59;21.50;99.90
20524;DHT22;10420;48.542;12.270;2023-05-27T10:51:05;22.20;99.90
20524;DHT22;10420;48.542;12.270;2023-05-27T10:56:07;22.20;99.90
20524;DHT22;10420;48.542;12.270;2023-05-27T11:01:13;21.50;99.90
20524;DHT22;10420;48.542;12.270;2023-05-27T11:06:14;22.00;99.90
20524;DHT22;10420;48.542;12.270;2023-05-27T11:11:16;22.30;99.90
20524;DHT22;10420;48.542;12.270;2023-05-27T11:16:17;22.30;99.90
20524;DHT22;10420;48.542;12.270;2023-05-27T11:21:18;22.30;99.90
20524;DHT22;10420;48.542;12.270;2023-05-27T11:26:21;22.40;99.90
20524;DHT22;10420;48.542;12.270;2023-05-27T11:31:27;21.80;99.90
20524;DHT22;10420;48.542;12.270;2023-05-27T11:36:28;22.00;99.90
20524;DHT22;10420;48.542;12.270;2023-05-27T11:41:32;22.50;99.90
20524;DHT22;10420;48.542;12.270;2023-05-27T11:46:41;22.90;99.90
20524;DHT22;10420;48.542;12.270;2023-05-27T11:51:44;22.50;99.90
20524;DHT22;10420;48.542;12.270;2023-05-27T11:56:46;22.50;99.90
20524;DHT22;10420;48.542;12.270;2023-05-27T12:01:46;22.30;99.90
20524;DHT22;10420;48.542;12.270;2023-05-27T12:06:47;22.00;99.90
20524;DHT22;10420;48.542;12.270;2023-05-27T12:11:48;22.00;99.90
20524;DHT22;10420;48.542;12.270;2023-05-27T12:16:49;22.30;99.90
20524;DHT22;10420;48.542;12.270;2023-05-27T12:21:50;21.90;99.90
20524;DHT22;10420;48.542;12.270;2023-05-27T12:26:50;21.70;99.90
20524;DHT22;10420;48.542;12.270;2023-05-27T12:31:53;21.70;99.90
20524;DHT22;10420;48.542;12.270;2023-05-27T12:36:54;22.00;99.90
20524;DHT22;10420;48.542;12.270;2023-05-27T12:41:54;21.60;99.90
20524;DHT22;10420;48.542;12.270;2023-05-27T12:46:55;21.50;99.90
20524;DHT22;10420;48.542;12.270;2023-05-27T12:51:55;21.60;99.90
20524;DHT22;10420;48.542;12.270;2023-05-27T12:56:56;21.40;99.90
20524;DHT22;10420;48.542;12.270;2023-05-27T13:01:57;21.50;99.90
20524;DHT22;10420;48.542;12.270;2023-05-27T13:06:57;21.10;99.90
20524;DHT22;10420;48.542;12.270;2023-05-27T13:11:58;21.20;99.40
20524;DHT22;10420;48.542;12.270;2023-05-27T13:16:59;21.10;98.10
20524;DHT22;10420;48.542;12.270;2023-05-27T13:21:59;21.50;99.90
20524;DHT22;10420;48.542;12.270;2023-05-27T13:27:00;21.30;99.70
20524;DHT22;10420;48.542;12.270;2023-05-27T13:32:01;21.10;99.50
20524;DHT22;10420;48.542;12.270;2023-05-27T13:37:02;21.20;99.40
20524;DHT22;10420;48.542;12.270;2023-05-27T13:42:03;21.30;99.30
20524;DHT22;10420;48.542;12.270;2023-05-27T13:47:04;21.50;99.90
20524;DHT22;10420;48.542;12.270;2023-05-27T13:52:05;21.50;99.90
20524;DHT22;10420;48.542;12.270;2023-05-27T13:57:06;21.50;99.20
20524;DHT22;10420;48.542;12.270;2023-05-27T14:02:07;21.20;98.50
20524;DHT22;10420;48.542;12.270;2023-05-27T14:07:09;21.20;99.90
20524;DHT22;10420;48.542;12.270;2023-05-27T14:12:10;21.60;99.90
20524;DHT22;10420;48.542;12.270;2023-05-27T14:17:11;21.30;99.50
20524;DHT22;10420;48.542;12.270;2023-05-27T14:22:11;21.60;99.50
20524;DHT22;10420;48.542;12.270;2023-05-27T14:27:12;21.20;97.90
20524;DHT22;10420;48.542;12.270;2023-05-27T14:32:22;21.10;99.30
20524;DHT22;10420;48.542;12.270;2023-05-27T14:37:23;21.40;99.00
20524;DHT22;10420;48.542;12.270;2023-05-27T14:42:23;21.30;97.30
20524;DHT22;10420;48.542;12.270;2023-05-27T14:47:24;21.50;99.60
20524;DHT22;10420;48.542;12.270;2023-05-27T14:52:25;21.60;99.50
20524;DHT22;10420;48.542;12.270;2023-05-27T14:57:25;21.50;97.50
20524;DHT22;10420;48.542;12.270;2023-05-27T15:02:26;21.40;96.80
20524;DHT22;10420;48.542;12.270;2023-05-27T15:07:26;21.20;97.60
20524;DHT22;10420;48.542;12.270;2023-05-27T15:12:37;21.40;97.40
20524;DHT22;10420;48.542;12.270;2023-05-27T15:17:41;21.30;96.50
20524;DHT22;10420;48.542;12.270;2023-05-27T15:22:45;21.20;95.50
20524;DHT22;10420;48.542;12.270;2023-05-27T15:27:46;21.40;97.10
20524;DHT22;10420;48.542;12.270;2023-05-27T15:32:46;21.50;96.70
20524;DHT22;10420;48.542;12.270;2023-05-27T15:37:47;21.30;95.90
20524;DHT22;10420;48.542;12.270;2023-05-27T15:42:48;21.40;96.20
20524;DHT22;10420;48.542;12.270;2023-05-27T15:47:48;21.20;94.80
20524;DHT22;10420;48.542;12.270;2023-05-27T15:52:50;21.20;95.50
20524;DHT22;10420;48.542;12.270;2023-05-27T15:57:50;21.20;95.30
20524;DHT22;10420;48.542;12.270;2023-05-27T16:02:52;21.00;96.10
20524;DHT22;10420;48.542;12.270;2023-05-27T16:07:53;21.20;94.40
20524;DHT22;10420;48.542;12.270;2023-05-27T16:12:53;21.20;94.50
20524;DHT22;10420;48.542;12.270;2023-05-27T16:17:54;21.10;94.90
20524;DHT22;10420;48.542;12.270;2023-05-27T16:22:55;21.10;95.60
20524;DHT22;10420;48.542;12.270;2023-05-27T16:27:56;21.00;96.30
20524;DHT22;10420;48.542;12.270;2023-05-27T16:32:57;21.10;96.40
20524;DHT22;10420;48.542;12.270;2023-05-27T16:37:57;20.90;95.70
20524;DHT22;10420;48.542;12.270;2023-05-27T16:42:58;21.00;96.70
20524;DHT22;10420;48.542;12.270;2023-05-27T16:47:58;21.00;96.60
20524;DHT22;10420;48.542;12.270;2023-05-27T16:53:00;20.90;97.00
20524;DHT22;10420;48.542;12.270;2023-05-27T16:58:00;20.90;96.70
20524;DHT22;10420;48.542;12.270;2023-05-27T17:03:01;20.80;97.00
20524;DHT22;10420;48.542;12.270;2023-05-27T17:08:01;20.80;97.10
20524;DHT22;10420;48.542;12.270;2023-05-27T17:13:02;20.60;98.50
20524;DHT22;10420;48.542;12.270;2023-05-27T17:18:03;20.50;97.90
20524;DHT22;10420;48.542;12.270;2023-05-27T17:23:04;20.50;97.40
20524;DHT22;10420;48.542;12.270;2023-05-27T17:28:04;20.40;97.10
20524;DHT22;10420;48.542;12.270;2023-05-27T17:33:05;20.40;97.80
20524;DHT22;10420;48.542;12.270;2023-05-27T17:38:06;20.30;97.90
20524;DHT22;10420;48.542;12.270;2023-05-27T17:43:07;20.20;97.40
20524;DHT22;10420;48.542;12.270;2023-05-27T17:48:13;20.10;98.00
20524;DHT22;10420;48.542;12.270;2023-05-27T17:53:18;19.90;97.10
20524;DHT22;10420;48.542;12.270;2023-05-27T17:58:19;19.90;98.00
20524;DHT22;10420;48.542;12.270;2023-05-27T18:03:20;19.60;98.20
20524;DHT22;10420;48.542;12.270;2023-05-27T18:08:20;19.50;98.60
20524;DHT22;10420;48.542;12.270;2023-05-27T18:13:21;19.40;99.00
20524;DHT22;10420;48.542;12.270;2023-05-27T18:18:21;19.20;99.90
20524;DHT22;10420;48.542;12.270;2023-05-27T18:23:22;19.00;99.90
20524;DHT22;10420;48.542;12.270;2023-05-27T18:28:23;18.90;99.90
20524;DHT22;10420;48.542;12.270;2023-05-27T18:33:23;18.30;99.90
20524;DHT22;10420;48.542;12.270;2023-05-27T18:38:24;17.70;99.90
20524;DHT22;10420;48.542;12.270;2023-05-27T18:43:25;17.20;99.90
20524;DHT22;10420;48.542;12.270;2023-05-27T18:48:26;16.80;99.90
20524;DHT22;10420;48.542;12.270;2023-05-27T18:53:27;16.40;99.90
20524;DHT22;10420;48.542;12.270;2023-05-27T18:58:27;16.30;99.90
20524;DHT22;10420;48.542;12.270;2023-05-27T19:03:28;16.00;99.90
20524;DHT22;10420;48.542;12.270;2023-05-27T19:08:29;15.90;99.90
20524;DHT22;10420;48.542;12.270;2023-05-27T19:13:30;15.70;99.90
20524;DHT22;10420;48.542;12.270;2023-05-27T19:18:30;15.50;99.90
20524;DHT22;10420;48.542;12.270;2023-05-27T19:23:31;15.10;99.90
20524;DHT22;10420;48.542;12.270;2023-05-27T19:28:31;14.80;99.90
20524;DHT22;10420;48.542;12.270;2023-05-27T19:33:32;14.80;99.90
20524;DHT22;10420;48.542;12.270;2023-05-27T19:38:33;14.70;99.90
20524;DHT22;10420;48.542;12.270;2023-05-27T19:43:33;14.40;99.90
20524;DHT22;10420;48.542;12.270;2023-05-27T19:48:34;14.30;99.90
20524;DHT22;10420;48.542;12.270;2023-05-27T19:53:35;14.40;99.90
20524;DHT22;10420;48.542;12.270;2023-05-27T19:58:35;14.20;99.90
20524;DHT22;10420;48.542;12.270;2023-05-27T20:03:37;14.00;99.90
20524;DHT22;10420;48.542;12.270;2023-05-27T20:08:37;13.90;99.90
20524;DHT22;10420;48.542;12.270;2023-05-27T20:13:38;14.10;99.90
20524;DHT22;10420;48.542;12.270;2023-05-27T20:18:38;14.10;99.90
20524;DHT22;10420;48.542;12.270;2023-05-27T20:23:39;14.10;99.90
20524;DHT22;10420;48.542;12.270;2023-05-27T20:28:41;14.00;99.90
20524;DHT22;10420;48.542;12.270;2023-05-27T20:33:42;13.70;99.90
20524;DHT22;10420;48.542;12.270;2023-05-27T20:38:42;13.50;99.90
20524;DHT22;10420;48.542;12.270;2023-05-27T20:43:43;13.40;99.90
20524;DHT22;10420;48.542;12.270;2023-05-27T20:48:46;13.20;99.90
20524;DHT22;10420;48.542;12.270;2023-05-27T20:53:46;13.10;99.90
20524;DHT22;10420;48.542;12.270;2023-05-27T20:58:47;13.10;99.90
20524;DHT22;10420;48.542;12.270;2023-05-27T21:03:48;13.10;99.90
20524;DHT22;10420;48.542;12.270;2023-05-27T21:08:48;12.90;99.90
20524;DHT22;10420;48.542;12.270;2023-05-27T21:13:49;12.80;99.90
20524;DHT22;10420;48.542;12.270;2023-05-27T21:18:49;12.90;99.90
20524;DHT22;10420;48.542;12.270;2023-05-27T21:23:50;12.70;99.90
20524;DHT22;10420;48.542;12.270;2023-05-27T21:28:51;12.60;99.90
20524;DHT22;10420;48.542;12.270;2023-05-27T21:33:51;12.70;99.90
20524;DHT22;10420;48.542;12.270;2023-05-27T21:38:52;12.80;99.90
20524;DHT22;10420;48.542;12.270;2023-05-27T21:43:52;12.70;99.90
20524;DHT22;10420;48.542;12.270;2023-05-27T21:48:53;12.80;99.90
20524;DHT22;10420;48.542;12.270;2023-05-27T21:53:54;12.90;99.90
20524;DHT22;10420;48.542;12.270;2023-05-27T21:58:57;12.70;99.90
20524;DHT22;10420;48.542;12.270;2023-05-27T22:03:58;12.70;99.90
20524;DHT22;10420;48.542;12.270;2023-05-27T22:08:58;12.70;99.90
20524;DHT22;10420;48.542;12.270;2023-05-27T22:13:59;13.00;99.90
20524;DHT22;10420;48.542;12.270;2023-05-27T22:19:00;13.20;99.90
20524;DHT22;10420;48.542;12.270;2023-05-27T22:24:00;13.30;99.90
20524;DHT22;10420;48.542;12.270;2023-05-27T22:29:01;13.00;99.90
20524;DHT22;10420;48.542;12.270;2023-05-27T22:34:02;12.90;99.90
20524;DHT22;10420;48.542;12.270;2023-05-27T22:39:03;12.90;99.90
20524;DHT22;10420;48.542;12.270;2023-05-27T22:44:04;13.00;99.90
20524;DHT22;10420;48.542;12.270;2023-05-27T22:49:05;13.10;99.90
20524;DHT22;10420;48.542;12.270;2023-05-27T22:54:05;13.10;99.90
20524;DHT22;10420;48.542;12.270;2023-05-27T22:59:06;13.10;99.90
20524;DHT22;10420;48.542;12.270;2023-05-27T23:04:07;13.30;99.90
20524;DHT22;10420;48.542;12.270;2023-05-27T23:09:07;13.30;99.90
20524;DHT22;10420;48.542;12.270;2023-05-27T23:14:08;13.20;99.90
20524;DHT22;10420;48.542;12.270;2023-05-27T23:19:09;12.90;99.90
20524;DHT22;10420;48.542;12.270;2023-05-27T23:24:10;12.70;99.90
20524;DHT22;10420;48.542;12.270;2023-05-27T23:29:11;12.70;99.90
20524;DHT22;10420;48.542;12.270;2023-05-27T23:34:11;12.70;99.90
20524;DHT22;10420;48.542;12.270;2023-05-27T23:39:14;12.60;99.90
20524;DHT22;10420;48.542;12.270;2023-05-27T23:44:15;12.60;99.90
20524;DHT22;10420;48.542;12.270;2023-05-27T23:49:16;12.70;99.90
20524;DHT22;10420;48.542;12.270;2023-05-27T23:54:18;12.60;99.90
20524;DHT22;10420;48.542;12.270;2023-05-27T23:59:18;12.50;99.90
